Terminal Aerodrome Forecast
Issued by NWS

Home | Current Version | Previous Version | Text Only | Print | Product List | Glossary On
Versions: 1 2 3 4 5 6 7 8 9 10 11 12 13 14 15
000
FTUS46 KMTR 270538
TAFMRY
TAF
KMRY 270538Z 2706/2806 25010KT 6SM BR SCT004 OVC008
      TEMPO 2708/2712 2SM -DZ BR OVC004
     FM271200 26008KT 3SM -DZ BR OVC004
     FM271600 24006KT 6SM BR BKN007 OVC013
     FM271900 28010G15KT P6SM FEW020 SCT250
     FM280300 28008KT P6SM FEW012 SCT250=

USA.gov is the U.S. government's official web portal to all federal, state and local government web resources and services.